Time;durP1;ratioP1;P1;durP2;ratioP2;P2;SDS_P1;SDS_P2;PMS_P1;PMS_P2;Temp;Humidity;BMP_temperature;BMP_pressure;BME280_temperature;BME280_humidity;BME280_pressure;Samples;Min_cycle;Max_cycle;Signal;HPM_P1;HPM_P2
2022/12/26 00:01:26;;;;;;;8.38;4.07;;;;;;;21.30;44.39;95779.16;5040521;28;20095;-62
2022/12/26 00:03:52;;;;;;;6.85;4.18;;;;;;;21.27;44.26;95780.09;5018296;28;20231;-62
2022/12/26 00:06:19;;;;;;;6.97;3.90;;;;;;;21.47;44.32;95805.28;5012172;28;20355;-62
2022/12/26 00:08:44;;;;;;;7.25;4.35;;;;;;;21.41;44.16;95790.13;5029128;28;20049;-62
2022/12/26 00:11:10;;;;;;;7.30;4.60;;;;;;;21.48;44.39;95797.91;5066591;28;20788;-62
2022/12/26 00:13:36;;;;;;;7.80;4.57;;;;;;;20.93;44.20;95723.16;5044750;28;20110;-63
2022/12/26 00:16:09;;;;;;;7.35;4.38;;;;;;;21.44;44.34;95805.47;5058818;28;20064;-62
2022/12/26 00:18:34;;;;;;;8.30;4.53;;;;;;;21.44;44.27;95817.09;5056395;28;20048;-62
2022/12/26 00:20:59;;;;;;;8.30;4.70;;;;;;;21.43;44.61;95825.72;5061741;28;20045;-62
2022/12/26 00:23:25;;;;;;;6.80;4.28;;;;;;;21.02;44.06;95759.06;5044946;28;20032;-62
2022/12/26 00:25:50;;;;;;;6.45;4.28;;;;;;;20.83;44.20;95734.63;5044830;28;20045;-62
2022/12/26 00:28:16;;;;;;;6.97;4.80;;;;;;;21.33;44.32;95827.09;5038973;28;20060;-62
2022/12/26 00:30:41;;;;;;;6.35;4.10;;;;;;;21.42;44.16;95829.66;5045244;28;20060;-62
2022/12/26 00:33:07;;;;;;;9.23;4.85;;;;;;;20.69;44.65;95735.44;5050702;28;20052;-62
2022/12/26 00:35:32;;;;;;;6.07;4.07;;;;;;;21.39;44.35;95825.19;5064351;28;20032;-62
2022/12/26 00:37:57;;;;;;;9.38;4.80;;;;;;;21.39;44.43;95819.75;5027809;28;20036;-62
2022/12/26 00:40:23;;;;;;;6.82;4.10;;;;;;;21.07;44.23;95780.09;5031567;28;20052;-62
2022/12/26 00:42:48;;;;;;;7.45;4.80;;;;;;;21.38;44.27;95822.94;5056753;28;20052;-62
2022/12/26 00:45:14;;;;;;;7.50;4.70;;;;;;;21.19;44.50;95795.28;5023395;28;20505;-62
2022/12/26 00:47:39;;;;;;;6.97;5.07;;;;;;;21.00;44.22;95777.78;5027165;28;20413;-63
2022/12/26 00:50:05;;;;;;;8.45;4.88;;;;;;;20.49;44.26;95703.56;5030589;28;20135;-62
2022/12/26 00:52:31;;;;;;;7.50;4.80;;;;;;;21.34;44.35;95833.25;5062506;28;20582;-63
2022/12/26 00:54:56;;;;;;;7.25;4.68;;;;;;;21.34;44.65;95823.13;5049810;28;20559;-62
2022/12/26 00:57:21;;;;;;;8.48;4.75;;;;;;;21.01;44.16;95779.25;5037530;28;20444;-61
2022/12/26 00:59:47;;;;;;;11.52;4.80;;;;;;;21.30;44.62;95833.47;5047776;28;20413;-62
2022/12/26 01:04:56;;;;;;;6.82;4.70;;;;;;;21.31;44.44;95839.63;5065917;28;20079;-63
2022/12/26 01:07:22;;;;;;;6.85;4.55;;;;;;;20.55;44.33;95719.91;5065494;28;20508;-62
2022/12/26 01:09:47;;;;;;;8.63;4.53;;;;;;;21.31;44.39;95850.50;5065395;28;20044;-62
2022/12/26 01:12:13;;;;;;;8.18;4.60;;;;;;;21.19;44.27;95822.44;5065004;28;20397;-62
2022/12/26 01:14:38;;;;;;;7.50;4.90;;;;;;;21.26;44.34;95830.19;5046289;28;20035;-62
2022/12/26 01:17:03;;;;;;;7.43;5.18;;;;;;;21.29;44.47;95848.28;5065821;28;20567;-62
2022/12/26 01:19:29;;;;;;;9.05;5.22;;;;;;;20.54;44.37;95745.56;5065521;28;20045;-62
2022/12/26 01:21:54;;;;;;;7.05;5.18;;;;;;;20.95;44.48;95807.56;5063986;28;20056;-62
2022/12/26 01:24:20;;;;;;;7.90;4.75;;;;;;;21.29;44.57;95866.53;5066046;28;20051;-62
2022/12/26 01:26:45;;;;;;;7.90;5.13;;;;;;;20.65;44.37;95778.28;5045979;28;20032;-62
2022/12/26 01:29:11;;;;;;;9.07;5.30;;;;;;;21.27;44.49;95867.03;5045094;28;20024;-62
2022/12/26 01:31:36;;;;;;;8.95;4.93;;;;;;;21.27;44.56;95867.03;5063123;28;20044;-62
2022/12/26 01:34:02;;;;;;;7.63;4.95;;;;;;;21.27;44.43;95861.59;5056328;28;20059;-62
2022/12/26 01:36:27;;;;;;;10.13;5.43;;;;;;;21.27;44.55;95871.69;5064401;28;20048;-62
2022/12/26 01:38:53;;;;;;;7.22;4.97;;;;;;;20.66;44.45;95785.94;5034091;28;20060;-62
2022/12/26 01:41:18;;;;;;;8.05;5.28;;;;;;;21.10;44.25;95863.31;5045996;28;20488;-63
2022/12/26 01:43:58;;;;;;;8.23;5.35;;;;;;;21.23;44.53;95855.59;5025315;28;20472;-63
2022/12/26 01:46:29;;;;;;;8.68;5.47;;;;;;;21.23;43.99;95855.59;5039907;28;20064;-62
2022/12/26 01:49:01;;;;;;;7.95;4.85;;;;;;;21.22;44.40;95845.94;5035062;28;20060;-62
2022/12/26 01:51:28;;;;;;;8.23;5.32;;;;;;;21.24;44.41;95846.25;5033946;28;20051;-62
2022/12/26 01:53:54;;;;;;;7.40;5.05;;;;;;;21.23;44.28;95844.72;5064124;28;20790;-62
2022/12/26 01:56:25;;;;;;;8.57;5.15;;;;;;;21.20;44.36;95856.53;5046026;28;20113;-62
2022/12/26 01:58:54;;;;;;;9.07;4.93;;;;;;;21.09;44.27;95829.25;5029004;28;20098;-62
2022/12/26 02:01:20;;;;;;;8.68;5.45;;;;;;;21.11;44.64;95832.22;5046384;28;20079;-62
2022/12/26 02:06:30;;;;;;;7.22;5.00;;;;;;;21.16;44.35;95834.25;5055397;28;20075;-62
2022/12/26 02:08:55;;;;;;;8.00;5.47;;;;;;;20.82;44.42;95785.47;5026153;28;20855;-62
2022/12/26 02:11:32;;;;;;;9.27;5.68;;;;;;;21.12;44.55;95822.88;5027047;28;20102;-62
2022/12/26 02:13:57;;;;;;;8.98;6.20;;;;;;;21.19;44.52;95838.75;5026041;28;20050;-62
2022/12/26 02:16:24;;;;;;;9.90;5.30;;;;;;;21.03;44.57;95804.00;5025623;28;20037;-62
2022/12/26 02:18:49;;;;;;;8.07;5.10;;;;;;;21.17;44.62;95824.91;5024789;28;20126;-62
2022/12/26 02:22:02;;;;;;;8.73;5.28;;;;;;;21.15;44.61;95827.34;5049797;28;20044;-62
2022/12/26 02:25:02;;;;;;;9.07;5.30;;;;;;;21.16;44.60;95823.41;5016900;28;20090;-62
2022/12/26 02:27:48;;;;;;;;;;;;;;;21.18;44.42;95820.97;5046240;28;20168;-62
2022/12/26 02:30:33;;;;;;;10.13;5.65;;;;;;;21.18;44.52;95820.97;5046259;28;19925;-62
2022/12/26 02:33:30;;;;;;;10.05;5.68;;;;;;;21.16;44.58;95823.41;5032106;28;20049;-62
2022/12/26 02:36:25;;;;;;;9.02;5.30;;;;;;;21.15;44.41;95826.59;5021491;28;20075;-62
2022/12/26 02:39:09;;;;;;;9.10;5.72;;;;;;;21.15;44.72;95821.94;5044889;28;20122;-62
2022/12/26 02:42:02;;;;;;;8.88;5.85;;;;;;;21.15;44.56;95826.59;5044508;28;20116;-63
2022/12/26 02:47:59;;;;;;;8.40;5.50;;;;;;;21.13;44.48;95840.63;5061418;28;20055;-63
2022/12/26 03:13:32;;;;;;;10.38;6.43;;;;;;;21.06;44.52;95822.06;5033767;28;20051;-62
2022/12/26 03:19:18;;;;;;;9.50;5.90;;;;;;;21.03;44.64;95825.72;5000690;28;20042;-62
2022/12/26 03:21:44;;;;;;;12.10;6.30;;;;;;;21.05;44.48;95828.69;5027581;28;20045;-61
2022/12/26 03:24:10;;;;;;;9.18;6.13;;;;;;;20.97;44.77;95822.19;5057521;28;20052;-62
2022/12/26 03:26:41;;;;;;;10.65;6.50;;;;;;;21.03;44.61;95842.00;5026646;28;20059;-62
2022/12/26 03:31:56;;;;;;;9.82;6.13;;;;;;;20.92;44.61;95840.38;5032995;28;20931;-62
2022/12/26 03:34:21;;;;;;;10.30;6.32;;;;;;;20.96;44.49;95825.38;5062368;28;20045;-62
2022/12/26 03:37:15;;;;;;;10.38;6.07;;;;;;;21.02;44.64;95851.38;5062605;28;20075;-62
2022/12/26 04:20:25;;;;;;;10.70;6.57;;;;;;;20.95;44.67;95842.13;5044333;28;20539;-62
2022/12/26 04:45:19;;;;;;;11.25;7.13;;;;;;;20.93;44.57;95847.28;5065169;28;20061;-62
2022/12/26 04:50:10;;;;;;;13.57;7.32;;;;;;;20.91;44.82;95849.72;5030530;28;20594;-62
2022/12/26 04:50:30;;;;;;;11.73;7.55;;;;;;;20.89;44.71;95852.16;5063391;28;20120;-62
2022/12/26 04:52:58;;;;;;;12.23;7.13;;;;;;;20.94;44.79;95859.63;5048619;28;20033;-62
2022/12/26 04:55:27;;;;;;;11.13;6.95;;;;;;;20.92;44.41;95856.66;5049285;28;20099;-62
2022/12/26 04:57:53;;;;;;;11.65;7.47;;;;;;;20.82;44.66;95860.69;5026787;28;20045;-62
2022/12/26 05:00:19;;;;;;;11.15;7.40;;;;;;;20.45;44.56;95786.38;5052266;28;20041;-62
2022/12/26 05:11:26;;;;;;;11.32;7.00;;;;;;;20.76;44.81;95827.28;5066092;28;20039;-60
2022/12/26 05:13:52;;;;;;;12.77;8.00;;;;;;;20.69;44.70;95850.16;5066138;28;20105;-62
2022/12/26 05:30:00;;;;;;;11.48;7.45;;;;;;;20.09;44.43;95786.78;5039333;28;20086;-63
2022/12/26 05:35:11;;;;;;;10.40;7.07;;;;;;;20.81;44.56;95897.22;5044353;28;20045;-62
2022/12/26 05:37:36;;;;;;;10.85;7.63;;;;;;;20.85;44.65;95900.47;5051897;28;20136;-62
2022/12/26 05:40:02;;;;;;;12.23;7.63;;;;;;;20.86;45.00;95896.53;5064868;28;20512;-62
2022/12/26 05:42:27;;;;;;;11.20;7.20;;;;;;;20.72;44.53;95870.19;5040551;28;20037;-62
2022/12/26 05:44:53;;;;;;;12.68;7.85;;;;;;;20.86;44.53;95904.69;5043550;28;20045;-62
2022/12/26 05:47:18;;;;;;;11.65;7.28;;;;;;;20.86;44.37;95912.81;5043396;28;20025;-62
2022/12/26 05:49:44;;;;;;;11.57;7.75;;;;;;;20.92;44.27;95894.66;5061129;28;20047;-62
2022/12/26 05:52:09;;;;;;;10.13;7.40;;;;;;;20.98;44.40;95913.28;5064273;28;20044;-63
2022/12/26 05:54:34;;;;;;;17.48;8.38;;;;;;;20.66;42.35;95834.03;5055345;28;20040;-63
2022/12/26 05:57:00;;;;;;;13.38;8.75;;;;;;;21.43;42.41;95885.47;5044074;28;20572;-63
2022/12/26 05:59:26;;;;;;;15.63;8.05;;;;;;;21.64;42.34;95884.28;5016107;28;20029;-62
2022/12/26 06:01:51;;;;;;;14.30;8.43;;;;;;;21.87;42.19;95889.50;5047101;28;20562;-62
2022/12/26 06:04:17;;;;;;;12.93;8.00;;;;;;;21.96;41.80;95890.09;5038415;28;20878;-62
2022/12/26 06:06:42;;;;;;;14.05;7.95;;;;;;;22.10;42.21;95894.69;5050237;28;20044;-62
2022/12/26 06:09:08;;;;;;;12.93;8.52;;;;;;;21.59;41.76;95795.28;5013610;28;20040;-63
2022/12/26 06:11:33;;;;;;;12.65;8.00;;;;;;;22.34;41.35;95906.09;5062096;28;20036;-62
2022/12/26 06:14:00;;;;;;;11.45;8.18;;;;;;;22.33;41.05;95874.69;5062610;28;20033;-63
2022/12/26 06:16:26;;;;;;;13.27;8.07;;;;;;;22.42;40.94;95872.53;5043419;28;20060;-63
2022/12/26 06:18:53;;;;;;;12.48;8.07;;;;;;;22.09;41.24;95822.50;5045586;28;20102;-62
2022/12/26 06:21:19;;;;;;;11.38;7.50;;;;;;;22.70;40.97;95883.66;5058958;28;20048;-61
2022/12/26 06:23:44;;;;;;;10.23;6.85;;;;;;;22.89;41.26;95894.44;5042075;28;20039;-62
2022/12/26 06:26:11;;;;;;;10.50;7.07;;;;;;;22.87;40.85;95884.50;5058688;28;20033;-62
2022/12/26 06:28:37;;;;;;;10.32;7.15;;;;;;;23.16;40.53;95907.53;5044822;28;20052;-62
2022/12/26 06:31:14;;;;;;;11.95;7.35;;;;;;;23.18;40.07;95909.75;5061312;28;20101;-62
2022/12/26 06:33:40;;;;;;;9.73;6.97;;;;;;;23.19;40.54;95916.72;5044982;28;20048;-61
2022/12/26 06:36:07;;;;;;;9.75;6.97;;;;;;;22.63;40.25;95805.88;5060674;28;20056;-62
2022/12/26 06:38:32;;;;;;;11.15;7.57;;;;;;;23.35;41.04;95908.63;5044746;28;20028;-61
2022/12/26 06:40:58;;;;;;;10.30;7.30;;;;;;;23.33;43.39;95905.63;5064230;28;20122;-62
2022/12/26 06:43:23;;;;;;;11.85;6.93;;;;;;;23.41;42.76;95907.44;5045505;28;20060;-65
2022/12/26 06:45:56;;;;;;;11.98;7.40;;;;;;;23.27;45.53;95899.41;5043179;28;20057;-62
2022/12/26 06:48:21;;;;;;;10.02;6.95;;;;;;;23.33;43.36;95911.09;5042478;28;20078;-63
2022/12/26 06:50:47;;;;;;;10.35;7.50;;;;;;;23.44;41.10;95911.16;5051754;28;20093;-62
2022/12/26 06:53:12;;;;;;;12.07;7.10;;;;;;;23.54;40.52;95920.63;5024466;28;20520;-62
2022/12/26 06:55:38;;;;;;;9.30;6.80;;;;;;;22.86;40.64;95834.00;5041631;28;20528;-62
2022/12/26 06:58:03;;;;;;;11.80;7.47;;;;;;;23.51;40.64;95924.31;5043078;28;20222;-63
2022/12/26 07:00:28;;;;;;;12.18;7.45;;;;;;;23.04;40.27;95823.50;5045525;28;20053;-62
2022/12/26 07:02:54;;;;;;;10.80;6.85;;;;;;;23.37;39.86;95872.72;5045554;28;20059;-62
2022/12/26 07:05:19;;;;;;;10.35;7.00;;;;;;;23.84;39.82;95922.53;5047391;28;20405;-63
2022/12/26 07:07:50;;;;;;;9.48;6.85;;;;;;;23.79;40.07;95925.25;5043417;28;20812;-61
2022/12/26 07:10:15;;;;;;;9.95;7.13;;;;;;;23.85;40.16;95928.72;5023375;28;20052;-61
2022/12/26 07:12:41;;;;;;;10.82;7.40;;;;;;;23.84;40.25;95932.69;5039134;28;20377;-62
2022/12/26 07:15:08;;;;;;;10.90;7.25;;;;;;;23.83;39.42;95917.56;5039586;28;20588;-61
2022/12/26 07:17:35;;;;;;;11.23;7.50;;;;;;;23.77;39.51;95895.00;5039511;28;20664;-61
2022/12/26 07:20:00;;;;;;;9.25;7.05;;;;;;;23.48;39.31;95818.97;5040246;28;20078;-63
2022/12/26 07:22:27;;;;;;;9.02;6.75;;;;;;;23.59;38.94;95829.94;5042722;28;20070;-61
2022/12/26 07:24:52;;;;;;;10.93;7.13;;;;;;;24.14;39.23;95935.28;5025059;28;20091;-61
2022/12/26 07:27:17;;;;;;;9.20;6.65;;;;;;;24.39;38.42;95950.75;5018929;28;20053;-61
2022/12/26 07:29:43;;;;;;;11.65;7.50;;;;;;;24.12;38.74;95915.91;5034630;28;20090;-61
2022/12/26 07:32:08;;;;;;;9.18;6.80;;;;;;;23.55;38.83;95823.97;5042350;28;20049;-61
2022/12/26 07:34:34;;;;;;;9.60;7.20;;;;;;;24.31;38.63;95938.81;5024325;28;20535;-60
2022/12/26 07:36:59;;;;;;;10.70;6.85;;;;;;;24.39;38.48;95946.06;5042113;28;20049;-62
2022/12/26 07:39:25;;;;;;;9.68;6.72;;;;;;;24.54;38.38;95935.66;5043320;28;20072;-61
2022/12/26 07:41:56;;;;;;;12.70;7.60;;;;;;;24.46;38.27;95939.38;5007473;28;20050;-62
2022/12/26 07:44:22;;;;;;;9.38;7.10;;;;;;;24.49;38.44;95922.00;5026728;28;20039;-61
2022/12/26 07:46:47;;;;;;;10.90;7.55;;;;;;;24.60;38.30;95943.84;5023897;28;20048;-61
2022/12/26 07:49:13;;;;;;;8.95;6.93;;;;;;;24.60;37.90;95930.19;5041725;28;20041;-61
2022/12/26 07:51:38;;;;;;;10.18;6.60;;;;;;;24.58;38.18;95929.94;5035307;28;20489;-60
2022/12/26 07:54:04;;;;;;;9.77;7.07;;;;;;;23.80;38.06;95795.81;5041882;28;20048;-62
2022/12/26 07:56:32;;;;;;;10.55;7.35;;;;;;;24.80;37.90;95927.22;5041209;28;20131;-62
2022/12/26 07:58:58;;;;;;;10.68;7.43;;;;;;;24.76;38.14;95924.00;5027683;28;20396;-62
2022/12/26 08:01:23;;;;;;;9.63;6.63;;;;;;;24.75;37.64;95919.78;5056050;28;20049;-62
2022/12/26 08:03:49;;;;;;;10.50;7.40;;;;;;;24.65;37.84;95918.50;5060320;28;20373;-62
2022/12/26 08:06:14;;;;;;;10.45;7.07;;;;;;;24.77;37.24;95914.53;5061563;28;20432;-62
2022/12/26 08:08:40;;;;;;;10.57;6.93;;;;;;;24.72;37.88;95918.78;5059894;28;20717;-61
2022/12/26 08:11:06;;;;;;;9.35;6.82;;;;;;;24.90;37.58;95924.50;5060067;28;20790;-62
2022/12/26 08:13:32;;;;;;;10.95;7.45;;;;;;;24.83;37.45;95908.59;5061880;28;20065;-63
2022/12/26 08:15:57;;;;;;;12.15;7.07;;;;;;;24.30;37.51;95806.28;5041351;28;20049;-62
2022/12/26 08:18:23;;;;;;;10.18;7.30;;;;;;;24.91;37.45;95925.97;5044442;28;20063;-62
2022/12/26 08:20:48;;;;;;;10.45;6.82;;;;;;;24.88;37.85;95929.69;5061435;28;23231;-61
2022/12/26 08:23:14;;;;;;;10.45;7.45;;;;;;;25.17;37.29;95931.97;5061921;28;20090;-62
2022/12/26 08:25:39;;;;;;;10.05;7.32;;;;;;;25.22;36.94;95944.88;5027779;28;20102;-61
2022/12/26 08:28:05;;;;;;;10.25;6.80;;;;;;;25.30;37.08;95934.91;5025691;28;20051;-62
2022/12/26 08:30:30;;;;;;;9.20;6.85;;;;;;;24.68;36.80;95851.97;5010288;28;20356;-60
2022/12/26 08:32:56;;;;;;;9.65;6.95;;;;;;;25.12;37.12;95916.31;5046586;28;20362;-61
2022/12/26 08:35:21;;;;;;;9.13;6.60;;;;;;;25.12;37.40;95904.63;5064811;28;20024;-60
2022/12/26 08:37:47;;;;;;;9.10;6.60;;;;;;;25.22;37.30;95933.94;5063260;28;20045;-60
2022/12/26 08:40:12;;;;;;;10.05;7.20;;;;;;;25.10;37.01;95924.25;5063582;28;20058;-59
2022/12/26 08:42:37;;;;;;;9.15;6.75;;;;;;;25.26;37.20;95923.50;5062538;28;20029;-61
2022/12/26 08:45:03;;;;;;;9.00;6.65;;;;;;;25.27;36.92;95919.50;5040959;28;20041;-61
2022/12/26 08:47:29;;;;;;;10.23;7.43;;;;;;;25.14;37.18;95916.56;5044047;28;20033;-61
2022/12/26 08:49:54;;;;;;;10.20;7.35;;;;;;;25.09;37.19;95914.56;5045321;28;20094;-60
2022/12/26 08:52:20;;;;;;;9.88;7.45;;;;;;;25.23;37.19;95908.09;5043829;28;20052;-62
2022/12/26 08:54:45;;;;;;;10.20;7.47;;;;;;;24.98;37.24;95909.09;5050120;28;20875;-62
2022/12/26 08:57:10;;;;;;;11.13;7.55;;;;;;;24.34;37.65;95817.72;5049279;28;20036;-61
2022/12/26 08:59:36;;;;;;;10.05;7.05;;;;;;;24.90;37.51;95891.72;5046423;28;20040;-61
2022/12/26 09:02:01;;;;;;;9.15;6.85;;;;;;;24.16;37.86;95796.34;5046700;28;20032;-61
2022/12/26 09:04:27;;;;;;;9.88;6.88;;;;;;;24.96;37.93;95905.34;5027894;28;20099;-61
2022/12/26 09:06:52;;;;;;;8.95;6.80;;;;;;;24.89;37.83;95889.47;5034304;28;20049;-61
2022/12/26 09:09:18;;;;;;;9.00;6.72;;;;;;;25.11;37.56;95895.69;5028067;28;20057;-61
2022/12/26 09:11:43;;;;;;;9.98;6.80;;;;;;;24.53;37.41;95791.41;5030221;28;20204;-62
2022/12/26 09:14:09;;;;;;;10.15;6.93;;;;;;;25.34;37.00;95869.78;5046269;28;20762;-61
2022/12/26 09:16:41;;;;;;;9.90;6.78;;;;;;;25.25;37.27;95924.75;5064181;28;20041;-61
2022/12/26 09:19:08;;;;;;;10.85;7.05;;;;;;;25.15;37.73;95901.63;5043384;28;20509;-61
2022/12/26 09:21:33;;;;;;;9.10;6.38;;;;;;;25.37;37.31;95902.34;5035663;28;20131;-62
2022/12/26 09:24:04;;;;;;;13.50;6.32;;;;;;;24.63;37.80;95781.72;5059685;28;20044;-61
2022/12/26 09:26:30;;;;;;;10.75;7.00;;;;;;;25.21;37.95;95909.84;5006943;28;20059;-61
2022/12/26 09:28:55;;;;;;;9.43;6.40;;;;;;;25.20;37.63;95903.63;5049875;28;20033;-62
2022/12/26 09:31:23;;;;;;;9.70;6.63;;;;;;;25.13;37.95;95906.88;5064275;28;20056;-61
2022/12/26 09:33:48;;;;;;;8.63;6.32;;;;;;;25.05;38.18;95897.69;5064089;28;20131;-61
2022/12/26 09:36:20;;;;;;;10.60;6.45;;;;;;;24.89;38.16;95890.22;5057402;28;20086;-62
2022/12/26 09:38:46;;;;;;;8.80;6.70;;;;;;;24.88;38.51;95894.19;5024156;28;20493;-61
2022/12/26 09:41:33;;;;;;;8.95;6.75;;;;;;;24.83;38.71;95892.19;5025519;28;20106;-61
2022/12/26 09:44:20;;;;;;;10.27;6.32;;;;;;;24.07;38.54;95782.94;5043883;28;20103;-61
2022/12/26 09:46:58;;;;;;;10.68;6.72;;;;;;;24.83;38.61;95886.75;5051666;28;20053;-61
2022/12/26 09:49:43;;;;;;;8.18;6.43;;;;;;;24.04;38.23;95756.66;5059941;28;20098;-61
2022/12/26 09:52:11;;;;;;;9.25;6.38;;;;;;;24.95;38.40;95882.03;5062479;28;20055;-61
2022/12/26 09:54:39;;;;;;;10.60;7.05;;;;;;;24.86;38.51;95880.28;5037199;28;20052;-61
2022/12/26 09:57:14;;;;;;;9.60;7.22;;;;;;;24.91;38.18;95882.25;5023522;28;20394;-61
2022/12/26 09:59:53;;;;;;;11.05;6.60;;;;;;;24.78;38.29;95866.88;5026657;28;20117;-62
2022/12/26 10:02:21;;;;;;;11.20;7.20;;;;;;;24.16;38.29;95801.81;5046770;28;20032;-61
2022/12/26 10:04:46;;;;;;;10.05;6.38;;;;;;;24.63;38.81;95866.38;5046845;28;20127;-61
2022/12/26 10:07:24;;;;;;;11.65;7.82;;;;;;;24.60;38.90;95867.38;5024791;28;20148;-64
2022/12/26 10:10:20;;;;;;;12.18;7.68;;;;;;;24.51;38.75;95864.88;5039933;28;20056;-61
2022/12/26 10:12:52;;;;;;;12.73;7.63;;;;;;;23.86;39.15;95776.22;5009250;28;20056;-62
2022/12/26 10:15:26;;;;;;;11.73;7.70;;;;;;;24.47;38.68;95859.69;5060838;28;20053;-62
2022/12/26 10:18:13;;;;;;;11.93;7.55;;;;;;;22.63;38.65;95603.66;5032661;28;20051;-61
2022/12/26 10:20:51;;;;;;;12.15;7.32;;;;;;;24.49;38.73;95857.19;5036863;28;20022;-61
2022/12/26 10:23:26;;;;;;;11.88;7.20;;;;;;;24.54;38.58;95853.75;5028191;28;20041;-60
2022/12/26 10:26:12;;;;;;;10.63;7.28;;;;;;;24.41;38.81;95844.53;5064411;28;20076;-61
2022/12/26 10:28:46;;;;;;;11.82;7.72;;;;;;;24.47;38.78;95842.56;5046313;28;20110;-61
2022/12/26 10:31:31;;;;;;;11.57;7.82;;;;;;;23.73;39.18;95730.84;5039469;28;20045;-61
2022/12/26 10:34:17;;;;;;;10.98;7.35;;;;;;;24.04;39.06;95778.47;5040725;28;20044;-61
2022/12/26 10:36:50;;;;;;;12.55;7.75;;;;;;;24.38;38.52;95818.22;5052306;28;20095;-61
2022/12/26 10:39:29;;;;;;;11.32;7.35;;;;;;;24.20;38.98;95796.09;5033574;28;20135;-61
2022/12/26 10:41:57;;;;;;;11.13;7.78;;;;;;;23.73;38.73;95730.84;5042946;28;20044;-60
2022/12/26 10:44:23;;;;;;;12.48;7.65;;;;;;;24.34;39.05;95834.09;5046099;28;20408;-61
2022/12/26 10:47:13;;;;;;;11.65;7.35;;;;;;;24.33;39.31;95820.94;5026275;28;20048;-62
2022/12/26 10:49:38;;;;;;;12.18;8.02;;;;;;;24.08;39.39;95784.44;5025095;28;20076;-61
2022/12/26 10:52:04;;;;;;;14.23;7.93;;;;;;;24.37;38.96;95824.94;5043184;28;20535;-61
2022/12/26 10:54:29;;;;;;;12.80;7.57;;;;;;;24.13;39.27;95780.22;5026007;28;20551;-61
2022/12/26 10:56:56;;;;;;;14.50;8.18;;;;;;;24.43;39.04;95820.22;5043749;28;20093;-61
2022/12/26 10:59:28;;;;;;;12.13;7.35;;;;;;;24.36;38.64;95821.47;5025961;28;20033;-61
2022/12/26 11:01:54;;;;;;;10.93;7.25;;;;;;;24.21;39.00;95795.59;4998365;28;20128;-61
2022/12/26 11:04:23;;;;;;;11.20;7.47;;;;;;;24.34;38.91;95812.25;5038176;28;20061;-61
2022/12/26 11:06:51;;;;;;;12.40;7.75;;;;;;;24.29;39.30;95810.25;5043498;28;20037;-61
2022/12/26 11:09:40;;;;;;;12.73;8.50;;;;;;;24.08;39.47;95778.97;5015778;28;20040;-61
2022/12/26 11:12:06;;;;;;;14.30;7.78;;;;;;;24.12;39.20;95798.56;5058364;28;20198;-61
2022/12/26 11:14:40;;;;;;;12.25;8.18;;;;;;;24.33;39.28;95794.38;5009299;28;20118;-61
2022/12/26 11:17:12;;;;;;;11.15;7.53;;;;;;;23.76;39.33;95713.47;5026430;28;20025;-61
2022/12/26 11:19:40;;;;;;;11.73;7.35;;;;;;;24.30;39.40;95797.34;4993208;28;20060;-60
2022/12/26 11:22:21;;;;;;;12.02;8.20;;;;;;;24.29;39.43;95793.88;5043875;28;20126;-61
2022/12/26 11:25:08;;;;;;;13.13;8.00;;;;;;;24.31;38.90;95794.13;5044027;28;20044;-61
2022/12/26 11:27:34;;;;;;;13.15;7.90;;;;;;;23.98;38.70;95742.25;5025726;28;20033;-61
2022/12/26 11:30:15;;;;;;;13.25;8.48;;;;;;;24.27;39.48;95785.44;5036595;28;20096;-61
2022/12/26 11:32:41;;;;;;;11.93;7.80;;;;;;;23.55;38.94;95671.28;5037013;28;20039;-61
2022/12/26 11:35:21;;;;;;;12.63;8.18;;;;;;;24.22;38.93;95761.63;5039591;28;20047;-61
2022/12/26 11:37:49;;;;;;;;;;;;;;;24.37;39.00;95773.06;5022214;28;20050;-61
2022/12/26 11:40:29;;;;;;;13.60;8.15;;;;;;;24.32;39.10;95764.81;5019262;28;19925;-61
2022/12/26 11:42:55;;;;;;;;;;;;;;;24.40;38.90;95772.06;5043465;28;20052;-61
2022/12/26 11:45:23;;;;;;;12.73;7.82;;;;;;;23.75;38.70;95662.91;5024093;28;19945;-61
2022/12/26 11:47:49;;;;;;;13.27;7.80;;;;;;;23.93;38.63;95702.09;5003743;28;20022;-61
2022/12/26 11:50:19;;;;;;;10.82;7.47;;;;;;;24.25;39.34;95744.25;5024908;28;20040;-63
2022/12/26 11:52:52;;;;;;;10.77;7.85;;;;;;;24.32;38.67;95760.13;5037744;28;20052;-60
2022/12/26 11:55:21;;;;;;;11.52;7.95;;;;;;;24.44;38.95;95756.19;5007959;28;20497;-63
2022/12/26 11:57:54;;;;;;;11.23;7.15;;;;;;;23.88;38.76;95672.84;5042485;28;20041;-62
2022/12/26 12:00:23;;;;;;;10.57;7.78;;;;;;;24.45;38.80;95757.66;5045587;28;20053;-61
2022/12/26 12:02:48;;;;;;;12.13;7.55;;;;;;;24.43;38.77;95754.69;5045799;28;20152;-62
2022/12/26 12:05:24;;;;;;;13.55;7.95;;;;;;;23.91;38.51;95650.00;5046673;28;20566;-61
2022/12/26 12:07:55;;;;;;;12.57;7.70;;;;;;;24.48;38.57;95723.88;5027638;28;20418;-60
2022/12/26 12:10:47;;;;;;;12.13;8.25;;;;;;;24.58;38.65;95749.69;5012194;28;20562;-61
2022/12/26 12:13:30;;;;;;;12.68;8.25;;;;;;;24.60;38.94;95737.03;5028547;28;20055;-60
2022/12/26 12:16:08;;;;;;;11.13;7.97;;;;;;;24.57;38.68;95743.50;5045562;28;20140;-61
2022/12/26 12:18:55;;;;;;;11.80;7.75;;;;;;;24.56;38.81;95738.53;5029053;28;20102;-61
2022/12/26 12:21:43;;;;;;;11.57;8.23;;;;;;;24.62;38.58;95740.00;5037728;28;20049;-61
2022/12/26 12:24:18;;;;;;;11.18;8.32;;;;;;;24.79;38.19;95731.78;5045455;28;20037;-60
2022/12/26 12:27:09;;;;;;;10.55;8.02;;;;;;;24.82;38.40;95730.78;5045477;28;20686;-61
2022/12/26 12:29:58;;;;;;;10.85;7.28;;;;;;;24.87;38.08;95739.69;5043307;28;20020;-60
2022/12/26 12:32:36;;;;;;;10.30;7.60;;;;;;;24.87;38.54;95728.78;5029116;28;20216;-61
2022/12/26 12:35:31;;;;;;;11.77;7.57;;;;;;;24.81;38.19;95729.28;5046708;28;20049;-61
2022/12/26 12:38:15;;;;;;;10.10;7.63;;;;;;;24.81;38.59;95729.28;5022973;28;20057;-60
2022/12/26 12:40:49;;;;;;;11.02;7.80;;;;;;;24.82;38.35;95721.31;5064116;28;20051;-61
2022/12/26 12:43:36;;;;;;;10.45;7.18;;;;;;;24.81;38.39;95735.47;5050810;28;20048;-61
2022/12/26 12:46:20;;;;;;;10.73;7.40;;;;;;;24.82;38.14;95725.31;5057382;28;20643;-61
2022/12/26 12:49:07;;;;;;;10.27;8.20;;;;;;;24.89;38.34;95726.28;5055794;28;20052;-62
2022/12/26 12:52:02;;;;;;;11.43;7.65;;;;;;;24.87;38.21;95728.78;5030482;28;20406;-61
2022/12/26 12:54:37;;;;;;;13.10;7.93;;;;;;;24.91;38.40;95721.03;5033954;28;20041;-61
2022/12/26 12:57:20;;;;;;;9.80;7.53;;;;;;;24.93;38.11;95726.75;5045419;28;20056;-61
2022/12/26 13:00:12;;;;;;;11.55;7.53;;;;;;;24.99;38.12;95724.03;5048497;28;20098;-61
2022/12/26 13:03:02;;;;;;;9.93;7.47;;;;;;;24.87;38.12;95730.75;5048222;28;20044;-61
2022/12/26 13:05:41;;;;;;;11.23;7.70;;;;;;;24.90;38.44;95711.38;4998897;28;20064;-61
2022/12/26 13:08:43;;;;;;;11.95;8.15;;;;;;;24.93;38.05;95721.31;5066452;28;20147;-60
2022/12/26 13:11:14;;;;;;;12.00;7.70;;;;;;;24.95;38.09;95723.53;5044581;28;20103;-60
2022/12/26 13:13:43;;;;;;;10.77;7.72;;;;;;;24.78;38.19;95702.97;5027776;28;20051;-61
2022/12/26 13:16:16;;;;;;;10.75;8.00;;;;;;;24.93;38.13;95721.31;5047064;28;20197;-61
2022/12/26 13:19:05;;;;;;;10.77;7.55;;;;;;;24.72;37.95;95688.56;5065829;28;20500;-61
2022/12/26 13:21:34;;;;;;;9.13;7.20;;;;;;;24.96;38.42;95753.09;5032364;28;20043;-62
2022/12/26 13:27:20;;;;;;;11.65;7.95;;;;;;;25.05;37.96;95720.03;5035036;28;20039;-61
2022/12/26 13:29:46;;;;;;;10.50;7.38;;;;;;;24.98;38.28;95717.06;5040589;28;20040;-61
2022/12/26 13:32:22;;;;;;;9.13;6.88;;;;;;;24.95;38.13;95702.41;5064218;28;20447;-61
2022/12/26 13:34:48;;;;;;;11.77;7.43;;;;;;;24.87;38.21;95701.44;5046849;28;20036;-61
2022/12/26 13:37:36;;;;;;;9.77;7.32;;;;;;;24.97;37.90;95721.75;5047076;28;20421;-61
2022/12/26 13:40:13;;;;;;;10.50;7.57;;;;;;;24.80;38.36;95717.63;5064732;28;20139;-61
2022/12/26 13:45:40;;;;;;;12.20;7.50;;;;;;;24.66;38.55;95723.34;5052382;28;20166;-60
2022/12/26 13:48:15;;;;;;;8.73;6.80;;;;;;;24.55;38.93;95728.84;5064670;28;20102;-61
2022/12/26 13:50:47;;;;;;;11.60;7.80;;;;;;;23.91;38.81;95633.63;5064666;28;20037;-61
2022/12/26 13:53:25;;;;;;;9.75;7.20;;;;;;;24.51;38.99;95725.63;5064851;28;20025;-61
2022/12/26 13:55:51;;;;;;;11.00;7.47;;;;;;;24.47;38.72;95725.16;5063709;28;20109;-62
2022/12/26 13:58:48;;;;;;;10.55;7.03;;;;;;;24.45;38.96;95724.88;5064161;28;20052;-61